Time;durP1;ratioP1;P1;durP2;ratioP2;P2;SDS_P1;SDS_P2;PMS_P1;PMS_P2;Temp;Humidity;BMP_temperature;BMP_pressure;BME280_temperature;BME280_humidity;BME280_pressure;Samples;Min_cycle;Max_cycle;Signal;HPM_P1;HPM_P2
2022/06/03 03:38:54;;;;;;;;;602.60;515.00;;;;;18.44;43.13;100952.31;5085982;27;45409;-70
2022/06/03 03:41:38;;;;;;;;;337.00;288.50;;;;;18.83;41.96;100960.09;5066121;27;45436;-71
2022/06/03 03:44:17;;;;;;;;;215.00;186.25;;;;;19.10;41.40;100960.22;5060961;28;45572;-71
2022/06/03 03:47:14;;;;;;;;;137.00;117.67;;;;;19.26;41.41;100957.94;5069168;28;45313;-73
2022/06/03 03:49:42;;;;;;;;;74.75;60.00;;;;;19.43;40.94;100952.13;5068245;28;45425;-73
2022/06/03 03:52:29;;;;;;;;;63.25;49.00;;;;;19.47;40.53;100933.38;5068170;27;45606;-75
2022/06/03 03:55:16;;;;;;;;;39.50;34.50;;;;;19.69;40.44;100951.31;5071749;28;45686;-76
2022/06/03 03:58:27;;;;;;;;;24.67;21.33;;;;;19.71;40.12;100944.16;5072579;27;45521;-75
2022/06/03 04:00:59;;;;;;;;;15.33;13.67;;;;;19.79;40.04;100936.84;5045168;28;46361;-75
2022/06/03 04:03:46;;;;;;;;;13.67;10.67;;;;;19.94;40.06;100946.06;5059071;28;45782;-74
2022/06/03 04:06:27;;;;;;;;;10.00;10.00;;;;;19.98;39.83;100949.47;5062275;28;45516;-73
2022/06/03 04:09:21;;;;;;;;;6.67;6.33;;;;;19.98;39.76;100942.41;5070408;27;45577;-77
2022/06/03 04:12:16;;;;;;;;;7.33;6.00;;;;;20.07;39.56;100952.72;5045094;28;46459;-72
2022/06/03 04:15:19;;;;;;;;;5.67;5.67;;;;;20.17;39.60;100949.72;5057786;28;45433;-72
2022/06/03 04:18:30;;;;;;;;;7.33;6.67;;;;;19.97;39.47;100922.03;5064449;28;45263;-74
2022/06/03 04:21:23;;;;;;;;;6.00;5.67;;;;;19.94;39.21;100919.50;5062526;28;45494;-76
2022/06/03 04:24:20;;;;;;;;;4.00;4.00;;;;;20.19;39.57;100954.06;5064862;28;45615;-75
2022/06/03 04:27:21;;;;;;;;;4.00;4.00;;;;;20.25;39.66;100945.03;5068357;28;45608;-73
2022/06/03 04:30:15;;;;;;;;;5.33;5.00;;;;;20.33;39.49;100949.16;5066769;28;45540;-78
2022/06/03 04:33:21;;;;;;;;;6.00;4.33;;;;;20.46;39.13;100951.38;5056779;28;45386;-77
2022/06/03 04:36:21;;;;;;;;;5.67;5.00;;;;;20.50;39.07;100953.00;5062391;28;46132;-72
2022/06/03 04:39:14;;;;;;;;;6.67;6.00;;;;;20.56;38.97;100955.47;5086584;27;45458;-73
2022/06/03 04:42:05;;;;;;;;;6.00;6.00;;;;;20.65;38.65;100949.81;5088279;27;46005;-79
2022/06/03 04:45:09;;;;;;;;;6.00;6.00;;;;;20.75;38.25;100964.53;5087128;27;45505;-73
2022/06/03 04:48:16;;;;;;;;;6.00;5.00;;;;;20.85;38.17;100961.53;5068511;27;48062;-75
2022/06/03 04:51:18;;;;;;;;;6.67;5.33;;;;;20.88;38.72;100964.06;5051257;28;45939;-78
2022/06/03 04:54:20;;;;;;;;;6.00;5.00;;;;;20.83;38.52;100953.59;5050616;28;45559;-77
2022/06/03 04:57:20;;;;;;;;;8.67;8.00;;;;;20.90;38.13;100954.22;5070760;27;45500;-77
2022/06/03 05:00:13;;;;;;;;;16.33;14.00;;;;;20.86;38.75;100952.63;5074913;27;46156;-74
2022/06/03 05:03:20;;;;;;;;;10.00;9.00;;;;;20.85;38.67;100970.38;5071261;27;45671;-74
2022/06/03 05:06:36;;;;;;;;;9.33;8.33;;;;;20.87;38.61;100970.34;5071056;27;45510;-79
2022/06/03 05:09:39;;;;;;;;;6.00;6.00;;;;;20.93;38.44;100959.47;5074568;28;45479;-76
2022/06/03 05:12:37;;;;;;;;;5.00;5.00;;;;;21.01;38.44;100961.84;5075002;28;46250;-78
2022/06/03 05:15:53;;;;;;;;;6.00;5.33;;;;;20.49;38.97;100879.44;5030948;27;45455;-74
2022/06/03 05:19:03;;;;;;;;;7.33;7.00;;;;;20.87;39.17;100946.38;5013718;28;45400;-76
2022/06/03 05:21:37;;;;;;;;;7.00;7.00;;;;;20.80;39.51;100947.53;5041889;28;45754;-75
2022/06/03 05:24:25;;;;;;;;;6.00;6.00;;;;;20.79;39.61;100967.09;5043668;28;46293;-78
2022/06/03 05:27:29;;;;;;;;;5.33;5.33;;;;;20.56;39.66;100928.00;5056558;28;45715;-76
2022/06/03 05:30:03;;;;;;;;;17.67;9.67;;;;;20.78;40.14;100965.34;5054485;28;45441;-79
2022/06/03 05:33:05;;;;;;;;;6.33;5.00;;;;;20.79;39.66;100953.78;5076207;27;45503;-72
2022/06/03 05:35:52;;;;;;;;;7.00;7.00;;;;;20.85;39.85;100959.72;5070016;27;46582;-77
2022/06/03 05:38:36;;;;;;;;;6.00;6.00;;;;;20.86;40.10;100948.16;5074322;27;45516;-71
2022/06/03 05:44:59;;;;;;;;;4.33;4.33;;;;;20.95;39.90;100954.91;5073164;28;45614;-76
2022/06/03 05:47:29;;;;;;;;;6.67;6.00;;;;;20.73;40.01;100894.50;5050557;27;46249;-72
2022/06/03 05:50:02;;;;;;;;;6.00;6.00;;;;;21.01;39.36;100927.22;5066238;27;46253;-74
2022/06/03 05:52:47;;;;;;;;;7.67;7.67;;;;;21.02;39.91;100931.59;5068441;27;45390;-74
2022/06/03 05:55:21;;;;;;;;;9.67;6.33;;;;;21.01;40.02;100936.06;5075652;27;45284;-70
2022/06/03 05:58:18;;;;;;;;;8.33;7.33;;;;;20.99;39.69;100927.25;5071820;28;45425;-72
2022/06/03 06:01:10;;;;;;;;;9.67;9.00;;;;;20.97;40.33;100923.78;5065891;28;45520;-73
2022/06/03 06:03:57;;;;;;;;;8.00;8.00;;;;;20.71;39.91;100924.78;5071460;27;45390;-76
2022/06/03 06:07:00;;;;;;;;;6.00;6.00;;;;;20.82;40.28;100941.22;5075906;27;45433;-78
2022/06/03 06:09:40;;;;;;;;;6.67;6.33;;;;;20.92;40.29;100942.59;5056083;28;47783;-76
2022/06/03 06:12:27;;;;;;;;;6.67;6.67;;;;;21.04;40.06;100948.38;5074721;27;45433;-79
2022/06/03 06:15:21;;;;;;;;;8.00;8.00;;;;;20.57;40.13;100890.69;5072257;27;45443;-76
2022/06/03 06:18:00;;;;;;;;;10.00;8.00;;;;;20.94;40.22;100938.09;5057868;28;45538;-73
2022/06/03 06:20:54;;;;;;;;;8.00;8.00;;;;;20.95;40.66;100945.16;5055256;28;46737;-75
2022/06/03 06:23:37;;;;;;;;;10.00;10.00;;;;;20.85;40.74;100924.25;5038728;28;45620;-75
2022/06/03 06:26:12;;;;;;;;;8.00;6.00;;;;;20.96;41.00;100944.22;5055195;28;45457;-72
2022/06/03 06:29:10;;;;;;;;;7.00;7.00;;;;;21.02;41.25;100935.13;5073217;28;45722;-74
2022/06/03 06:31:36;;;;;;;;;10.33;9.00;;;;;20.87;41.00;100906.44;5066953;28;45590;-69
2022/06/03 06:34:35;;;;;;;;;9.00;9.00;;;;;21.02;40.90;100921.81;5076029;27;45576;-74
2022/06/03 06:37:17;;;;;;;;;8.00;7.33;;;;;21.26;40.60;100932.44;5046745;27;45581;-73
2022/06/03 06:39:48;;;;;;;;;6.67;6.67;;;;;21.36;40.12;100933.84;5071587;28;45505;-75
2022/06/03 06:42:28;;;;;;;;;7.67;7.00;;;;;21.45;40.15;100936.16;5075890;27;45670;-75
2022/06/03 06:45:20;;;;;;;;;7.33;6.00;;;;;21.39;39.92;100912.38;5076375;27;45471;-71
2022/06/03 06:48:17;;;;;;;;;9.00;9.00;;;;;21.60;39.93;100935.53;5070040;27;45666;-71
2022/06/03 06:51:08;;;;;;;;;10.33;8.33;;;;;21.49;40.00;100915.56;5071341;27;45449;-70
2022/06/03 06:53:55;;;;;;;;;8.00;8.00;;;;;21.36;40.08;100901.88;5069655;28;46286;-69
2022/06/03 06:56:33;;;;;;;;;9.00;9.00;;;;;21.15;40.09;100868.97;5070223;28;45601;-71
2022/06/03 06:59:18;;;;;;;;;10.00;8.33;;;;;21.53;39.89;100933.19;5073561;27;45420;-72
2022/06/03 07:02:16;;;;;;;;;8.67;8.00;;;;;21.59;40.38;100930.25;5074447;27;46258;-72
2022/06/03 07:04:55;;;;;;;;;9.33;9.33;;;;;21.60;40.75;100934.69;5045179;27;46547;-71
2022/06/03 07:07:34;;;;;;;;;9.00;8.00;;;;;21.52;40.42;100921.66;5057839;27;45480;-71
2022/06/03 07:10:06;;;;;;;;;9.00;8.00;;;;;21.51;40.56;100937.72;5056402;28;45385;-70
2022/06/03 07:12:55;;;;;;;;;9.67;7.00;;;;;21.46;40.84;100931.69;5067276;27;45559;-70
2022/06/03 07:15:25;;;;;;;;;9.33;9.00;;;;;21.37;40.89;100930.22;5063639;27;46719;-69
2022/06/03 07:21:27;;;;;;;;;9.00;9.00;;;;;21.30;41.43;100920.75;5073586;28;45584;-74
2022/06/03 07:24:03;;;;;;;;;11.00;7.00;;;;;21.32;41.58;100930.41;5039532;28;45399;-71
2022/06/03 07:26:34;;;;;;;;;9.00;8.00;;;;;21.37;41.41;100927.56;5052779;28;47577;-70
2022/06/03 07:29:35;;;;;;;;;8.67;8.33;;;;;21.37;41.60;100931.09;5075678;27;45639;-74
2022/06/03 07:32:21;;;;;;;;;10.33;8.67;;;;;21.36;41.70;100924.03;5073536;28;45478;-74
2022/06/03 07:35:06;;;;;;;;;5.33;5.33;;;;;21.36;41.53;100923.19;5074043;27;46532;-72
2022/06/03 07:37:48;;;;;;;;;13.00;9.33;;;;;21.08;41.96;100905.59;5070367;28;45769;-76
2022/06/03 07:40:40;;;;;;;;;11.00;11.00;;;;;21.31;42.14;100933.16;5069471;27;45492;-72
2022/06/03 07:43:24;;;;;;;;;10.00;10.00;;;;;21.32;42.14;100942.88;5043323;28;45407;-70
2022/06/03 07:45:58;;;;;;;;;11.67;8.67;;;;;21.10;42.11;100898.44;5072184;28;45544;-70
2022/06/03 07:48:27;;;;;;;;;8.00;8.00;;;;;21.48;41.97;100940.50;5071947;27;45318;-71
2022/06/03 07:51:04;;;;;;;;;9.00;8.33;;;;;21.58;41.88;100942.72;5068790;28;45281;-71
2022/06/03 07:53:46;;;;;;;;;9.00;9.00;;;;;21.60;41.76;100940.00;5065439;28;45559;-69
2022/06/03 07:56:26;;;;;;;;;9.00;8.00;;;;;21.72;41.74;100952.81;5066315;27;45549;-71
2022/06/03 07:58:57;;;;;;;;;8.00;8.00;;;;;21.33;41.78;100875.31;5066168;27;46788;-74
2022/06/03 08:01:29;;;;;;;;;9.33;9.00;;;;;21.70;41.72;100937.81;5075971;27;45383;-74
2022/06/03 08:03:56;;;;;;;;;10.00;10.00;;;;;21.65;42.08;100931.81;5071033;28;45346;-73
2022/06/03 08:12:37;;;;;;;;;7.33;7.33;;;;;22.10;41.89;100945.03;5075200;27;45403;-72
2022/06/03 08:15:18;;;;;;;;;8.00;6.33;;;;;22.13;41.83;100925.34;5071289;28;45572;-74
2022/06/03 08:17:52;;;;;;;;;11.00;10.33;;;;;22.25;42.13;100938.19;5067960;28;45299;-73
2022/06/03 08:20:25;;;;;;;;;9.67;9.67;;;;;22.08;42.19;100898.88;5049283;28;45397;-72
2022/06/03 08:22:53;;;;;;;;;10.33;9.00;;;;;22.22;42.05;100933.00;5069435;28;45323;-75
2022/06/03 08:25:28;;;;;;;;;10.00;9.00;;;;;22.23;42.41;100924.03;5072258;27;45408;-73
2022/06/03 08:27:58;;;;;;;;;10.33;10.00;;;;;22.39;42.16;100949.13;5056156;28;45422;-76
2022/06/03 08:30:28;;;;;;;;;10.00;8.00;;;;;22.48;42.18;100950.53;5078178;27;45437;-74
2022/06/03 08:33:01;;;;;;;;;10.33;9.33;;;;;22.44;41.93;100912.41;5074514;27;45578;-73
2022/06/03 08:35:36;;;;;;;;;11.00;10.33;;;;;22.71;41.91;100930.81;5071119;27;45597;-75
2022/06/03 08:38:12;;;;;;;;;8.33;8.00;;;;;22.75;41.22;100905.69;5069730;27;45401;-74
2022/06/03 08:41:01;;;;;;;;;13.33;12.33;;;;;22.88;41.47;100930.03;5069508;28;46388;-69
2022/06/03 08:43:29;;;;;;;;;10.00;10.00;;;;;22.84;41.37;100921.28;5069837;27;45330;-72
2022/06/03 08:46:07;;;;;;;;;13.00;11.33;;;;;22.62;41.79;100870.69;5071655;27;45265;-75
2022/06/03 08:48:45;;;;;;;;;11.00;10.00;;;;;23.02;41.66;100913.41;5067568;28;45518;-76
2022/06/03 08:51:47;;;;;;;;;14.33;13.00;;;;;23.02;41.20;100908.94;5067959;28;45537;-74
2022/06/03 08:54:29;;;;;;;;;12.33;9.33;;;;;23.05;41.16;100895.41;5059039;27;45327;-71
2022/06/03 08:57:07;;;;;;;;;12.00;11.00;;;;;23.13;41.49;100905.72;5073708;28;45412;-73
2022/06/03 08:59:53;;;;;;;;;11.00;10.67;;;;;23.06;41.37;100888.25;5058343;28;45614;-76
2022/06/03 09:02:37;;;;;;;;;11.67;11.00;;;;;23.21;41.05;100903.56;5079526;28;45499;-72
2022/06/03 09:05:32;;;;;;;;;14.00;12.00;;;;;23.23;41.69;100901.69;5069762;28;45570;-74
2022/06/03 09:08:07;;;;;;;;;13.00;13.00;;;;;22.96;41.72;100860.25;5044588;28;45393;-73
2022/06/03 09:10:41;;;;;;;;;13.00;12.00;;;;;23.10;41.78;100881.84;5072770;28;45822;-74
2022/06/03 09:13:38;;;;;;;;;14.00;13.00;;;;;23.23;42.05;100903.47;5075774;28;45667;-74
2022/06/03 09:16:06;;;;;;;;;12.00;12.00;;;;;23.19;42.26;100900.09;5073093;28;45622;-72
2022/06/03 09:18:40;;;;;;;;;12.33;11.33;;;;;23.19;41.74;100902.78;5076017;28;45586;-74
2022/06/03 09:21:12;;;;;;;;;10.00;10.00;;;;;23.23;41.34;100901.69;5077492;27;45461;-74
2022/06/03 09:23:50;;;;;;;;;12.33;12.00;;;;;23.26;41.26;100903.34;5058304;28;47133;-74
2022/06/03 09:26:25;;;;;;;;;12.33;10.33;;;;;23.33;41.42;100902.13;5073390;27;45422;-74
2022/06/03 09:28:53;;;;;;;;;10.67;8.67;;;;;23.42;41.53;100914.16;5076435;28;45465;-72
2022/06/03 09:31:20;;;;;;;;;12.00;12.00;;;;;23.44;42.16;100909.59;5051822;28;45596;-73
2022/06/03 09:33:47;;;;;;;;;13.00;11.33;;;;;23.43;42.39;100921.25;5071168;28;45972;-74
2022/06/03 09:36:18;;;;;;;;;11.33;11.33;;;;;23.44;43.63;100922.97;5072341;28;45518;-73
2022/06/03 09:39:10;;;;;;;;;15.33;13.33;;;;;23.40;43.13;100953.47;5075883;27;46537;-75
2022/06/03 09:41:40;;;;;;;;;16.33;13.00;;;;;23.34;42.90;100962.63;5034193;28;45548;-74
2022/06/03 09:44:09;;;;;;;;;12.67;12.00;;;;;23.31;43.50;100948.56;5071137;28;46385;-69
2022/06/03 09:46:37;;;;;;;;;13.00;12.00;;;;;23.22;43.02;100944.50;5067074;28;45383;-72
2022/06/03 09:49:18;;;;;;;;;13.33;12.33;;;;;23.20;43.73;100973.13;5075764;27;45492;-75
2022/06/03 09:52:00;;;;;;;;;12.00;12.00;;;;;23.05;43.87;100953.31;5068181;28;45409;-74
2022/06/03 09:54:39;;;;;;;;;11.67;11.00;;;;;22.99;44.05;100929.56;5055993;28;47700;-69
2022/06/03 09:57:07;;;;;;;;;18.00;17.50;;;;;23.05;44.01;100970.22;5077154;27;45410;-71
2022/06/03 09:59:38;;;;;;;;;13.33;13.33;;;;;22.93;44.25;100973.44;5068789;28;45551;-70
2022/06/03 10:02:06;;;;;;;;;13.67;12.33;;;;;22.93;44.50;100959.22;5071855;27;45343;-71
2022/06/03 10:04:33;;;;;;;;;14.33;11.00;;;;;22.60;44.52;100890.38;5074257;27;45322;-72
2022/06/03 10:07:00;;;;;;;;;13.33;13.33;;;;;22.73;44.52;100915.59;5075010;28;45335;-70
2022/06/03 10:18:01;;;;;;;;;10.33;10.33;;;;;23.15;45.65;100921.69;5070733;27;45448;-72
2022/06/03 10:20:26;;;;;;;;;15.00;12.33;;;;;23.04;45.01;100888.34;5077721;28;45521;-72
2022/06/03 10:22:55;;;;;;;;;15.33;13.67;;;;;23.11;45.91;100891.56;5070500;27;45516;-71
2022/06/03 10:25:23;;;;;;;;;18.33;15.00;;;;;23.27;45.77;100908.59;5068909;28;45734;-71
2022/06/03 10:27:49;;;;;;;;;13.00;11.50;;;;;23.34;45.30;100913.66;5066062;28;45441;-69
2022/06/03 10:30:26;;;;;;;;;13.00;13.00;;;;;23.46;45.70;100932.63;5051950;28;45628;-75
2022/06/03 10:32:51;;;;;;;;;12.00;11.00;;;;;23.41;46.02;100910.63;5058214;28;45531;-74
2022/06/03 10:35:18;;;;;;;;;13.33;13.33;;;;;23.58;45.97;100928.50;5070999;28;46604;-72
2022/06/03 10:38:09;;;;;;;;;15.67;13.33;;;;;23.63;46.39;100929.16;5069562;27;45859;-74
2022/06/03 10:40:42;;;;;;;;;14.00;12.67;;;;;23.69;46.42;100927.97;5052166;28;45314;-74
2022/06/03 10:43:09;;;;;;;;;18.67;18.67;;;;;23.82;46.17;100928.25;5055502;28;45464;-72
2022/06/03 10:45:37;;;;;;;;;14.33;14.00;;;;;23.78;46.29;100924.03;5072479;28;46427;-73
2022/06/03 10:48:39;;;;;;;;;14.67;12.67;;;;;23.72;46.28;100887.72;5068913;28;45457;-70
2022/06/03 10:51:18;;;;;;;;;16.33;15.00;;;;;24.05;46.39;100929.78;4945239;28;46241;-71
2022/06/03 11:02:37;;;;;;;;;12.33;12.33;;;;;24.15;46.39;100932.84;5082086;28;45513;-72
2022/06/03 11:05:13;;;;;;;;;14.67;14.67;;;;;24.14;46.53;100918.59;5056161;28;45437;-75
2022/06/03 11:07:40;;;;;;;;;16.00;16.00;;;;;23.86;46.40;100879.88;5066052;28;46078;-77
2022/06/03 11:10:13;;;;;;;;;17.00;17.00;;;;;24.23;46.73;100936.84;5066677;28;45357;-75
2022/06/03 11:12:39;;;;;;;;;16.00;15.00;;;;;24.04;46.66;100904.84;5070533;28;45450;-74
2022/06/03 11:15:33;;;;;;;;;14.33;14.33;;;;;24.32;46.71;100951.56;5073656;28;45423;-74
2022/06/03 11:18:00;;;;;;;;;13.00;12.67;;;;;24.38;46.21;100967.31;5071386;28;46395;-71
2022/06/03 11:20:39;;;;;;;;;13.00;12.00;;;;;24.30;47.13;100957.00;5075552;28;45632;-74
2022/06/03 11:23:07;;;;;;;;;15.33;14.67;;;;;24.12;47.38;100940.06;5052097;28;45437;-74
2022/06/03 11:25:36;;;;;;;;;13.00;13.00;;;;;24.11;46.97;100953.56;5067736;27;45515;-75
2022/06/03 11:28:04;;;;;;;;;12.33;11.67;;;;;24.13;47.33;100967.69;5073049;27;46052;-75
2022/06/03 11:30:30;;;;;;;;;15.00;14.33;;;;;24.05;47.89;100972.59;5065102;28;45351;-75
2022/06/03 11:33:02;;;;;;;;;12.67;12.67;;;;;23.77;47.79;100941.00;5074598;28;45396;-74
2022/06/03 11:35:39;;;;;;;;;12.00;10.00;;;;;23.87;48.39;100969.00;5068911;28;45460;-72
2022/06/03 11:38:10;;;;;;;;;11.67;11.67;;;;;23.75;48.42;100956.25;5065945;28;45463;-76
2022/06/03 11:40:43;;;;;;;;;11.00;11.00;;;;;23.79;48.64;100969.41;5069553;28;45387;-77
2022/06/03 11:43:16;;;;;;;;;10.00;10.00;;;;;23.76;48.26;100966.88;5073223;28;45523;-77
2022/06/03 11:46:08;;;;;;;;;11.33;11.33;;;;;23.83;48.17;100975.47;5056247;28;45467;-76
2022/06/03 11:48:37;;;;;;;;;12.33;12.33;;;;;23.77;48.22;100970.41;5061201;27;45560;-78
2022/06/03 11:51:04;;;;;;;;;11.33;11.33;;;;;23.69;48.89;100968.09;5070837;28;46115;-80
2022/06/03 11:53:33;;;;;;;;;12.00;12.00;;;;;23.47;49.31;100955.78;5053324;28;45496;-75
2022/06/03 11:56:02;;;;;;;;;11.67;10.00;;;;;23.59;49.45;100981.06;5073211;27;46401;-76
2022/06/03 11:58:44;;;;;;;;;13.00;12.67;;;;;23.54;49.81;100982.19;5071707;27;45624;-72
2022/06/03 12:01:17;;;;;;;;;10.00;10.00;;;;;23.43;50.59;100972.03;5074967;28;45330;-70
2022/06/03 12:03:55;;;;;;;;;11.00;7.67;;;;;23.44;50.94;100989.78;5057478;28;45891;-68
2022/06/03 12:06:35;;;;;;;;;11.33;9.67;;;;;23.17;51.52;100959.91;5067918;27;45364;-67
2022/06/03 12:09:08;;;;;;;;;10.00;10.00;;;;;23.27;52.09;100991.44;5054656;28;45572;-71
2022/06/03 12:14:45;;;;;;;;;10.67;9.67;;;;;23.07;52.76;100970.16;5074239;27;45996;-69
2022/06/03 12:17:13;;;;;;;;;9.33;9.33;;;;;23.14;52.71;100987.63;5071668;28;45385;-69
2022/06/03 12:19:48;;;;;;;;;11.00;10.00;;;;;23.04;53.52;100975.63;5072846;27;46220;-68
2022/06/03 12:22:29;;;;;;;;;11.00;11.00;;;;;23.03;53.65;100988.13;5079090;27;45283;-68
2022/06/03 12:24:58;;;;;;;;;10.00;10.00;;;;;22.99;54.06;100991.88;5074568;27;45529;-67
2022/06/03 12:27:37;;;;;;;;;10.33;9.33;;;;;22.92;54.29;100998.41;5074827;27;45291;-68
2022/06/03 12:30:05;;;;;;;;;9.00;8.00;;;;;22.89;54.59;100982.50;5075414;28;45456;-68
2022/06/03 12:32:33;;;;;;;;;8.00;7.67;;;;;22.83;55.02;100991.69;5058933;28;45454;-70
2022/06/03 12:35:47;;;;;;;;;9.00;9.00;;;;;22.72;56.05;100990.41;5075158;28;45523;-68
2022/06/03 12:38:23;;;;;;;;;10.67;10.33;;;;;22.68;56.46;100991.47;5077479;28;45455;-69
2022/06/03 12:40:52;;;;;;;;;10.67;10.67;;;;;22.61;56.50;100989.09;5078805;28;46829;-66
2022/06/03 12:43:46;;;;;;;;;10.00;10.00;;;;;22.61;56.86;100994.44;5072002;28;45390;-67
2022/06/03 12:46:41;;;;;;;;;9.33;8.33;;;;;22.65;56.47;100993.34;5069243;28;45569;-68
2022/06/03 12:49:32;;;;;;;;;9.67;9.00;;;;;22.70;56.27;100989.63;5078192;27;45237;-71
2022/06/03 12:52:08;;;;;;;;;6.00;6.00;;;;;22.69;55.92;100982.56;5071511;27;45833;-68
2022/06/03 12:55:01;;;;;;;;;11.00;7.00;;;;;22.73;56.72;100981.47;5071747;27;45500;-72
2022/06/03 12:57:37;;;;;;;;;7.00;7.00;;;;;22.57;57.66;100966.13;5057897;28;45460;-70
2022/06/03 13:00:18;;;;;;;;;7.00;7.00;;;;;22.63;57.71;100979.19;5073689;27;45420;-70
2022/06/03 13:03:26;;;;;;;;;7.33;7.33;;;;;22.60;58.41;100986.50;5071967;28;45462;-74
2022/06/03 13:05:55;;;;;;;;;10.00;8.33;;;;;22.49;58.23;100970.06;5076790;27;45429;-73
2022/06/03 13:08:26;;;;;;;;;6.67;6.67;;;;;22.40;58.88;100972.22;5069949;28;45402;-72
2022/06/03 13:10:54;;;;;;;;;8.33;8.33;;;;;22.21;58.82;100956.16;5075424;27;45468;-69
2022/06/03 13:13:34;;;;;;;;;8.00;8.00;;;;;22.26;59.79;100971.94;5056020;28;47014;-71
2022/06/03 13:16:00;;;;;;;;;6.67;6.67;;;;;22.22;59.30;100959.66;5076762;27;45509;-69
2022/06/03 13:18:35;;;;;;;;;10.67;8.33;;;;;22.05;59.75;100949.69;5076264;27;45478;-72
2022/06/03 13:21:00;;;;;;;;;7.00;7.00;;;;;22.15;60.30;100960.84;5078366;28;45415;-70
2022/06/03 13:23:35;;;;;;;;;9.00;9.00;;;;;22.11;59.96;100962.75;5071270;28;45484;-69
2022/06/03 13:26:22;;;;;;;;;7.67;7.67;;;;;22.26;59.95;100971.94;5071051;28;45347;-70
2022/06/03 13:28:51;;;;;;;;;7.33;7.33;;;;;22.32;59.01;100971.66;5072924;27;45607;-70
2022/06/03 13:31:26;;;;;;;;;6.33;6.00;;;;;22.39;58.78;100966.94;5072849;28;45548;-71
2022/06/03 13:34:10;;;;;;;;;7.67;5.67;;;;;22.49;58.77;100975.41;5066776;28;46796;-71
2022/06/03 13:36:39;;;;;;;;;5.67;5.33;;;;;22.41;57.97;100943.72;5057413;28;45436;-73
2022/06/03 13:39:26;;;;;;;;;6.00;6.00;;;;;22.64;57.23;100969.41;5075596;27;45698;-71
2022/06/03 13:45:18;;;;;;;;;8.00;7.00;;;;;22.68;60.05;100965.66;5075358;28;45417;-72
2022/06/03 13:48:11;;;;;;;;;8.00;6.67;;;;;22.69;59.03;100961.19;5056699;28;45960;-70
2022/06/03 13:50:37;;;;;;;;;8.33;7.67;;;;;22.46;58.78;100923.03;5073900;27;45426;-71
2022/06/03 13:53:06;;;;;;;;;6.33;6.33;;;;;22.72;60.38;100964.59;5055459;28;45377;-72
2022/06/03 13:55:59;;;;;;;;;8.33;7.00;;;;;22.68;61.02;100960.31;5075422;28;45546;-69
2022/06/03 13:58:39;;;;;;;;;8.33;7.67;;;;;22.43;62.07;100917.84;5072226;27;45599;-70
2022/06/03 14:01:42;;;;;;;;;7.67;7.33;;;;;22.56;61.61;100940.38;5071841;28;45475;-71
2022/06/03 14:04:28;;;;;;;;;10.00;8.33;;;;;22.48;62.02;100922.97;5073137;27;45525;-72
2022/06/03 14:07:03;;;;;;;;;8.33;8.33;;;;;22.52;62.60;100936.13;5071257;28;45519;-71
2022/06/03 14:09:37;;;;;;;;;10.67;9.67;;;;;22.50;62.90;100943.31;5054029;28;45569;-70
2022/06/03 14:12:06;;;;;;;;;9.00;9.00;;;;;22.43;62.41;100939.19;5071305;27;45455;-72
2022/06/03 14:14:46;;;;;;;;;7.33;6.67;;;;;22.24;62.10;100907.13;5074362;27;45393;-68
2022/06/03 14:17:46;;;;;;;;;15.00;13.33;;;;;22.39;61.94;100932.25;5073936;27;46166;-70
2022/06/03 14:20:23;;;;;;;;;12.00;12.00;;;;;22.29;61.36;100910.44;5065607;27;45553;-68
2022/06/03 14:23:10;;;;;;;;;11.00;11.00;;;;;22.39;62.53;100925.09;5074519;27;45603;-68
2022/06/03 14:25:48;;;;;;;;;12.33;11.00;;;;;22.39;63.20;100924.25;5073984;28;45602;-71
2022/06/03 14:28:19;;;;;;;;;6.00;5.00;;;;;22.52;61.48;100945.91;5050932;28;46713;-74
2022/06/03 14:31:00;;;;;;;;;11.33;11.00;;;;;22.47;60.38;100943.47;5076350;28;45456;-71
2022/06/03 14:33:36;;;;;;;;;9.00;9.00;;;;;22.44;60.94;100936.44;5073232;28;45453;-72
2022/06/03 14:36:06;;;;;;;;;15.33;12.33;;;;;22.54;61.44;100949.38;5077213;28;45543;-72
2022/06/03 14:38:45;;;;;;;;;11.67;9.67;;;;;22.49;61.55;100948.72;5067372;27;46834;-71
2022/06/03 14:41:21;;;;;;;;;8.33;7.33;;;;;22.49;59.89;100943.38;5053635;28;45366;-74
2022/06/03 14:43:47;;;;;;;;;8.33;8.33;;;;;22.46;61.13;100931.03;5068835;28;45543;-70
2022/06/03 14:46:24;;;;;;;;;9.33;7.00;;;;;22.47;61.40;100929.22;5073166;27;45501;-70
2022/06/03 14:48:55;;;;;;;;;6.00;5.67;;;;;22.53;60.27;100950.31;5068361;28;46107;-69
2022/06/03 14:51:41;;;;;;;;;7.00;6.67;;;;;22.34;60.31;100924.44;5071909;28;45347;-71
2022/06/03 14:54:22;;;;;;;;;7.67;6.00;;;;;22.41;59.46;100941.91;5071734;27;45389;-73
2022/06/03 14:56:53;;;;;;;;;9.00;9.00;;;;;22.56;59.74;100960.84;5072493;28;45492;-70
2022/06/03 14:59:27;;;;;;;;;6.00;6.00;;;;;22.58;59.03;100954.50;5070900;28;47408;-71
2022/06/03 15:02:13;;;;;;;;;6.00;6.00;;;;;22.27;59.06;100890.09;5072829;27;45424;-73
2022/06/03 15:04:54;;;;;;;;;7.67;6.67;;;;;22.26;60.06;100886.56;5053169;28;45387;-71
2022/06/03 15:07:31;;;;;;;;;6.33;6.33;;;;;22.55;59.79;100935.13;5038712;28;45597;-70
2022/06/03 15:10:09;;;;;;;;;8.67;7.00;;;;;22.51;58.72;100929.03;5070692;27;45463;-69
2022/06/03 15:12:36;;;;;;;;;7.00;7.00;;;;;22.48;58.20;100923.84;5071488;27;45425;-71
2022/06/03 15:15:07;;;;;;;;;8.33;8.33;;;;;22.48;59.70;100929.19;5072461;28;45274;-74
2022/06/03 15:17:35;;;;;;;;;8.33;8.33;;;;;22.38;59.80;100918.06;5073107;27;45605;-76
2022/06/03 15:20:14;;;;;;;;;8.00;7.67;;;;;22.38;60.45;100926.06;5074150;27;46169;-73
2022/06/03 15:22:47;;;;;;;;;8.33;7.67;;;;;22.26;59.02;100915.03;5075599;27;45352;-74
2022/06/03 15:25:16;;;;;;;;;9.00;9.00;;;;;22.41;59.78;100946.41;5073184;28;45363;-74
2022/06/03 15:28:04;;;;;;;;;7.67;7.33;;;;;22.48;59.11;100955.88;5052468;28;45639;-73
2022/06/03 15:30:37;;;;;;;;;9.33;8.00;;;;;22.35;58.98;100933.31;5071253;28;45429;-70
2022/06/03 15:33:16;;;;;;;;;7.00;7.00;;;;;22.43;59.14;100941.88;5053254;28;45557;-73
2022/06/03 15:35:43;;;;;;;;;7.00;6.00;;;;;22.47;59.42;100939.91;5068420;27;45394;-70
2022/06/03 15:38:22;;;;;;;;;8.67;8.00;;;;;22.62;59.29;100968.59;5075997;27;45888;-73
2022/06/03 15:40:57;;;;;;;;;10.00;10.00;;;;;22.43;59.21;100937.38;5057465;27;45537;-70
2022/06/03 15:43:34;;;;;;;;;8.67;8.00;;;;;22.43;58.94;100950.72;5077217;28;45411;-71
2022/06/03 15:45:59;;;;;;;;;8.00;7.00;;;;;22.51;58.34;100966.41;5073103;27;45330;-71
2022/06/03 15:48:29;;;;;;;;;7.00;7.00;;;;;22.52;58.22;100953.91;5050534;27;45358;-70
2022/06/03 15:51:08;;;;;;;;;7.00;7.00;;;;;22.59;58.84;100955.38;5076727;28;46146;-69
2022/06/03 15:53:46;;;;;;;;;9.00;8.33;;;;;22.67;59.23;100960.41;5076741;27;45537;-69
2022/06/03 15:56:22;;;;;;;;;8.00;7.00;;;;;22.71;59.30;100959.28;5077002;27;45426;-69
2022/06/03 15:59:15;;;;;;;;;9.00;9.00;;;;;22.74;59.09;100961.84;5051810;28;45279;-68
2022/06/03 16:02:02;;;;;;;;;9.00;9.00;;;;;22.76;58.97;100971.53;5050178;28;45960;-69
2022/06/03 16:04:52;;;;;;;;;6.67;6.67;;;;;22.69;56.97;100963.88;5046877;27;45555;-70
2022/06/03 16:07:30;;;;;;;;;6.00;6.00;;;;;22.76;56.39;100979.53;5075997;28;45472;-70
2022/06/03 16:10:29;;;;;;;;;6.00;6.00;;;;;22.85;56.19;100959.53;5080219;28;45437;-68
2022/06/03 16:13:13;;;;;;;;;8.00;6.67;;;;;22.94;55.96;100953.78;5061059;28;46394;-69
2022/06/03 16:15:54;;;;;;;;;6.67;6.67;;;;;23.04;55.79;100949.78;5076745;28;45536;-70
2022/06/03 16:18:35;;;;;;;;;13.33;7.00;;;;;23.05;56.25;100934.63;5076017;27;45497;-70
2022/06/03 16:21:11;;;;;;;;;7.33;7.00;;;;;23.13;56.88;100947.63;5068639;28;45405;-70
2022/06/03 16:23:45;;;;;;;;;9.67;8.33;;;;;23.21;57.06;100956.16;5047339;28;47749;-68
2022/06/03 16:26:34;;;;;;;;;9.67;7.00;;;;;23.12;55.80;100932.53;5075277;28;45487;-69
2022/06/03 16:29:18;;;;;;;;;8.33;7.00;;;;;23.28;55.60;100936.22;5052272;28;45464;-71
2022/06/03 16:32:10;;;;;;;;;8.00;8.00;;;;;23.26;55.54;100938.97;5074661;27;45385;-70
2022/06/03 16:34:43;;;;;;;;;7.33;6.00;;;;;23.26;56.32;100938.09;5075817;28;46238;-69